createdAt,value
2018-09-06T04:05:01.900Z,16.53
2018-09-06T04:07:31.676Z,16.56
2018-09-06T04:10:01.735Z,16.53
2018-09-06T04:12:31.155Z,16.47
2018-09-06T04:15:00.204Z,16.42
2018-09-06T04:17:29.432Z,16.48
2018-09-06T04:19:59.021Z,16.55
2018-09-06T04:22:28.292Z,16.49
2018-09-06T04:24:58.413Z,16.39
2018-09-06T04:27:27.707Z,16.38
2018-09-06T04:29:56.620Z,16.49
2018-09-06T04:32:26.045Z,16.54
2018-09-06T04:34:55.417Z,16.50
2018-09-06T04:37:24.465Z,16.37
2018-09-06T04:39:53.603Z,16.41
2018-09-06T04:42:22.548Z,16.53
2018-09-06T04:44:51.597Z,16.55
2018-09-06T04:47:20.672Z,16.48
2018-09-06T04:49:51.487Z,16.41
2018-09-06T04:52:20.481Z,16.55
2018-09-06T04:54:50.940Z,16.50
2018-09-06T04:57:20.340Z,16.45
2018-09-06T04:59:49.776Z,16.57
2018-09-06T05:02:18.744Z,16.68
2018-09-06T05:04:47.630Z,16.62
2018-09-06T05:07:16.530Z,16.63
2018-09-06T05:09:45.740Z,16.58
2018-09-06T05:12:14.920Z,16.65
2018-09-06T05:14:44.020Z,16.71
2018-09-06T05:17:13.344Z,16.66
2018-09-06T05:19:42.411Z,16.67
2018-09-06T05:22:11.353Z,16.72
2018-09-06T05:24:40.194Z,16.78
2018-09-06T05:27:09.040Z,16.84
2018-09-06T05:29:38.043Z,16.88
2018-09-06T05:32:06.993Z,16.97
2018-09-06T05:34:36.471Z,16.81
2018-09-06T05:37:06.367Z,16.88
2018-09-06T05:39:35.336Z,16.96
2018-09-06T05:42:04.476Z,17.04
2018-09-06T05:44:33.161Z,17.04
2018-09-06T05:47:02.009Z,16.97
2018-09-06T05:49:30.913Z,16.91
2018-09-06T05:52:00.217Z,17.02
2018-09-06T05:54:29.999Z,16.92
2018-09-06T05:56:59.244Z,17.17
2018-09-06T05:59:28.139Z,17.23
2018-09-06T06:01:57.035Z,17.29
2018-09-06T06:04:26.095Z,17.16
2018-09-06T06:06:55.011Z,17.10
2018-09-06T06:09:23.912Z,17.23
2018-09-06T06:11:53.030Z,17.27
2018-09-06T06:14:21.888Z,17.19
2018-09-06T06:16:51.357Z,17.40
2018-09-06T06:19:20.908Z,17.52
2018-09-06T06:21:50.028Z,17.71
2018-09-06T06:24:18.885Z,17.77
2018-09-06T06:26:48.031Z,17.98
2018-09-06T06:29:17.044Z,18.02
2018-09-06T06:31:46.332Z,18.19
2018-09-06T06:34:15.427Z,18.25
2018-09-06T06:36:44.213Z,18.32
2018-09-06T06:39:14.089Z,18.47
2018-09-06T06:41:43.064Z,18.34
2018-09-06T06:44:12.223Z,18.32
2018-09-06T06:46:41.088Z,18.45
2018-09-06T06:49:09.940Z,18.55
2018-09-06T06:51:39.046Z,18.40
2018-09-06T06:54:07.906Z,18.60
2018-09-06T06:56:36.771Z,18.79
2018-09-06T06:59:05.709Z,18.75
2018-09-06T07:01:34.860Z,18.71
2018-09-06T07:04:03.664Z,18.95
2018-09-06T07:06:34.107Z,19.02
2018-09-06T07:09:04.283Z,18.88
2018-09-06T07:11:34.053Z,18.77
2018-09-06T07:14:03.127Z,18.92
2018-09-06T07:16:31.954Z,18.96
2018-09-06T07:19:00.735Z,19.13
2018-09-06T07:21:29.811Z,18.94
2018-09-06T07:23:58.803Z,19.14
2018-09-06T07:26:27.744Z,19.10
2018-09-06T07:28:57.411Z,19.09
2018-09-06T07:31:26.942Z,19.12
2018-09-06T07:33:56.119Z,19.22
2018-09-06T07:36:26.246Z,19.49
2018-09-06T07:38:55.186Z,19.29
2018-09-06T07:41:24.481Z,19.10
2018-09-06T07:43:53.127Z,19.32
2018-09-06T07:46:21.935Z,19.41
2018-09-06T07:48:50.972Z,19.48
2018-09-06T07:51:19.988Z,19.63
2018-09-06T07:53:48.753Z,19.81
2018-09-06T07:56:17.574Z,19.93
2018-09-06T07:58:46.447Z,19.70
2018-09-06T08:01:15.333Z,19.60
2018-09-06T08:03:44.737Z,19.89
2018-09-06T08:06:13.742Z,19.75
2018-09-06T08:08:42.899Z,19.84
2018-09-06T08:11:11.762Z,20.16
2018-09-06T08:13:40.528Z,20.17
2018-09-06T08:16:09.311Z,20.20
2018-09-06T08:18:38.399Z,20.23
2018-09-06T08:21:07.268Z,20.39
2018-09-06T08:23:36.105Z,20.48
2018-09-06T08:26:05.188Z,20.45
2018-09-06T08:28:34.168Z,20.57
2018-09-06T08:31:04.858Z,20.60
2018-09-06T08:33:34.873Z,20.59
2018-09-06T08:36:04.133Z,20.65
2018-09-06T08:38:32.972Z,20.67
2018-09-06T08:41:01.896Z,20.83
2018-09-06T08:43:30.852Z,20.99
2018-09-06T08:46:00.021Z,21.17
2018-09-06T08:48:29.186Z,21.09
2018-09-06T08:50:58.254Z,21.02
2018-09-06T08:53:27.153Z,21.26
2018-09-06T08:55:56.047Z,21.35
2018-09-06T08:58:25.190Z,21.47
2018-09-06T09:00:59.533Z,21.59
2018-09-06T09:03:28.457Z,21.75
2018-09-06T09:05:57.600Z,21.56
2018-09-06T09:08:32.881Z,21.64
2018-09-06T09:11:02.128Z,21.49
2018-09-06T09:13:31.206Z,21.85
2018-09-06T09:16:00.104Z,21.96
2018-09-06T09:18:29.209Z,22.27
2018-09-06T09:20:58.249Z,22.38
2018-09-06T09:23:27.200Z,22.51
2018-09-06T09:25:56.383Z,22.39
2018-09-06T09:28:25.108Z,22.15
2018-09-06T09:30:54.091Z,22.28
2018-09-06T09:33:23.151Z,22.59
2018-09-06T09:35:52.128Z,22.52
2018-09-06T09:38:20.835Z,22.34
2018-09-06T09:40:49.564Z,22.44
2018-09-06T09:43:18.547Z,22.55
2018-09-06T09:45:47.425Z,22.88
2018-09-06T09:48:16.490Z,23.03
2018-09-06T09:53:16.091Z,22.88
2018-09-06T09:55:44.992Z,23.04
2018-09-06T09:58:13.885Z,22.80
2018-09-06T10:00:43.623Z,22.84
2018-09-06T10:03:17.839Z,23.44
2018-09-06T10:05:52.249Z,23.54
2018-09-06T10:08:26.446Z,23.27
2018-09-06T10:10:55.766Z,23.51
2018-09-06T10:13:24.860Z,23.32
2018-09-06T10:15:54.048Z,23.84
2018-09-06T10:18:22.968Z,23.98
2018-09-06T10:20:52.209Z,23.75
2018-09-06T10:23:21.149Z,23.50
2018-09-06T10:25:50.138Z,23.23
2018-09-06T10:28:19.304Z,23.21
2018-09-06T10:30:48.323Z,23.93
2018-09-06T10:33:17.430Z,24.03
2018-09-06T10:35:46.726Z,23.87
2018-09-06T10:38:15.511Z,23.79
2018-09-06T10:40:44.338Z,23.37
2018-09-06T10:43:13.148Z,23.92
2018-09-06T10:45:42.272Z,24.47
2018-09-06T10:48:11.141Z,24.48
2018-09-06T10:50:40.029Z,24.66
2018-09-06T10:53:15.509Z,23.80
2018-09-06T10:55:44.477Z,24.08
2018-09-06T10:58:13.354Z,24.63
2018-09-06T11:00:42.504Z,24.84
2018-09-06T11:03:11.560Z,23.98
2018-09-06T11:05:41.098Z,24.48
2018-09-06T11:08:10.044Z,25.33
2018-09-06T11:10:39.087Z,24.72
2018-09-06T11:13:08.075Z,25.10
2018-09-06T11:15:37.073Z,24.05
2018-09-06T11:18:06.254Z,23.93
2018-09-06T11:20:35.099Z,27.01
2018-09-06T11:23:04.346Z,28.06
2018-09-06T11:25:33.238Z,27.81
2018-09-06T11:28:02.101Z,28.88
2018-09-06T11:30:32.857Z,28.99
2018-09-06T11:33:01.922Z,30.27
2018-09-06T11:35:30.937Z,29.24
2018-09-06T11:38:00.216Z,28.27
2018-09-06T11:40:29.058Z,29.44
2018-09-06T11:42:58.132Z,29.09
2018-09-06T11:45:27.184Z,29.92
2018-09-06T11:47:56.614Z,28.64
2018-09-06T11:50:25.632Z,26.97
2018-09-06T11:52:54.827Z,26.66
2018-09-06T11:55:23.600Z,26.37
2018-09-06T11:57:53.090Z,26.60
2018-09-06T12:00:22.695Z,26.83
2018-09-06T12:02:51.827Z,26.39
2018-09-06T12:05:20.919Z,25.59
2018-09-06T12:07:50.039Z,26.83
2018-09-06T12:10:19.068Z,26.05
2018-09-06T12:12:48.008Z,26.45
2018-09-06T12:15:17.300Z,25.91
2018-09-06T12:17:46.403Z,25.45
2018-09-06T12:20:15.286Z,24.73
2018-09-06T12:22:44.176Z,26.05
2018-09-06T12:25:13.045Z,28.23
2018-09-06T12:27:42.809Z,28.41
2018-09-06T12:30:11.729Z,29.59
2018-09-06T12:32:42.814Z,26.77
2018-09-06T12:35:12.268Z,27.62
2018-09-06T12:37:41.199Z,26.55
2018-09-06T12:40:10.132Z,26.49
2018-09-06T12:42:38.956Z,25.60
2018-09-06T12:45:08.083Z,26.74
2018-09-06T12:47:36.815Z,25.83
2018-09-06T12:50:05.871Z,25.46
2018-09-06T12:52:34.683Z,25.07
2018-09-06T12:55:03.471Z,25.15
2018-09-06T12:57:32.324Z,25.09
2018-09-06T13:00:01.635Z,25.01
2018-09-06T13:02:36.389Z,25.18
2018-09-06T13:05:05.913Z,28.16
2018-09-06T13:07:34.752Z,30.73
2018-09-06T13:10:03.548Z,28.10
2018-09-06T13:12:32.428Z,26.28
2018-09-06T13:15:01.535Z,26.66
2018-09-06T13:17:30.571Z,27.18
2018-09-06T13:19:59.521Z,25.99
2018-09-06T13:22:28.694Z,25.46
2018-09-06T13:24:57.763Z,25.14
2018-09-06T13:27:27.021Z,24.92
2018-09-06T13:29:56.721Z,25.29
2018-09-06T13:32:25.844Z,25.81
2018-09-06T13:34:54.911Z,31.51
2018-09-06T13:37:23.774Z,31.29
2018-09-06T13:39:52.786Z,27.44
2018-09-06T13:42:21.993Z,31.30
2018-09-06T13:44:50.873Z,31.40
2018-09-06T13:47:19.792Z,29.36
2018-09-06T13:49:48.937Z,31.90
2018-09-06T13:52:17.826Z,30.28
2018-09-06T13:54:46.612Z,27.68
2018-09-06T13:57:15.808Z,31.86
2018-09-06T13:59:44.838Z,33.00
2018-09-06T14:02:14.143Z,30.43
2018-09-06T14:04:43.034Z,33.35
2018-09-06T14:07:13.563Z,31.59
2018-09-06T14:09:42.431Z,31.13
2018-09-06T14:12:11.692Z,33.32
2018-09-06T14:14:40.850Z,30.60
2018-09-06T14:17:09.896Z,28.05
2018-09-06T14:19:38.838Z,27.81
2018-09-06T14:22:07.926Z,27.81
2018-09-06T14:24:36.823Z,26.67
2018-09-06T14:27:05.941Z,26.86
2018-09-06T14:29:35.023Z,27.01
2018-09-06T14:32:04.167Z,26.46
2018-09-06T14:34:34.021Z,26.76
2018-09-06T14:37:03.097Z,25.97
2018-09-06T14:39:32.013Z,25.46
2018-09-06T14:42:01.510Z,25.71
2018-09-06T14:44:30.815Z,25.60
2018-09-06T14:46:59.697Z,25.45
2018-09-06T14:49:29.700Z,25.25
2018-09-06T14:51:59.082Z,25.49
2018-09-06T14:54:27.950Z,25.21
2018-09-06T14:56:57.100Z,25.35
2018-09-06T14:59:26.202Z,25.35
2018-09-06T15:01:55.596Z,25.48
2018-09-06T15:04:24.294Z,25.83
2018-09-06T15:06:53.219Z,25.99
2018-09-06T15:09:22.176Z,26.24
2018-09-06T15:11:51.154Z,25.80
2018-09-06T15:14:20.167Z,25.91
2018-09-06T15:16:50.272Z,25.76
2018-09-06T15:19:19.432Z,25.28
2018-09-06T15:21:48.424Z,24.96
2018-09-06T15:24:17.272Z,24.72
2018-09-06T15:26:46.577Z,24.82
2018-09-06T15:29:16.141Z,24.95
2018-09-06T15:31:45.253Z,24.97
2018-09-06T15:34:13.999Z,24.84
2018-09-06T15:36:42.899Z,24.97
2018-09-06T15:39:11.936Z,25.02
2018-09-06T15:41:41.619Z,25.12
2018-09-06T15:44:10.741Z,25.10
2018-09-06T15:46:40.043Z,25.20
2018-09-06T15:49:09.280Z,25.14
2018-09-06T15:51:38.836Z,25.17
2018-09-06T15:54:08.061Z,24.83
2018-09-06T15:56:36.800Z,24.92
2018-09-06T15:59:06.549Z,24.77
2018-09-06T16:01:37.020Z,24.62
2018-09-06T16:04:06.898Z,24.53
2018-09-06T16:06:35.770Z,24.47
2018-09-06T16:09:05.447Z,24.44
2018-09-06T16:11:34.465Z,24.27
2018-09-06T16:14:03.684Z,24.09
2018-09-06T16:16:33.045Z,23.97
2018-09-06T16:19:02.482Z,23.83
2018-09-06T16:21:31.264Z,23.73
2018-09-06T16:24:00.662Z,23.73
2018-09-06T16:26:29.767Z,23.60
2018-09-06T16:28:58.653Z,23.53
2018-09-06T16:31:27.494Z,23.43
2018-09-06T16:33:56.592Z,23.43
2018-09-06T16:36:25.528Z,23.39
2018-09-06T16:38:54.625Z,23.30
2018-09-06T16:41:23.726Z,23.23
2018-09-06T16:43:52.823Z,23.25
2018-09-06T16:46:22.296Z,23.17
2018-09-06T16:48:52.240Z,23.14
2018-09-06T16:51:21.377Z,23.11
2018-09-06T16:53:50.186Z,22.98
2018-09-06T16:56:20.144Z,23.00
2018-09-06T16:58:50.220Z,22.97
2018-09-06T17:01:22.172Z,22.84
2018-09-06T17:03:51.994Z,22.80
2018-09-06T17:06:21.502Z,22.81
2018-09-06T17:08:50.528Z,22.82
2018-09-06T17:11:20.476Z,22.72
2018-09-06T17:13:49.265Z,22.65
2018-09-06T17:16:18.552Z,22.56
2018-09-06T17:18:47.838Z,22.52
2018-09-06T17:21:16.935Z,22.62
2018-09-06T17:23:45.778Z,22.45
2018-09-06T17:26:15.192Z,22.37
2018-09-06T17:28:45.449Z,22.35
2018-09-06T17:31:14.533Z,22.13
2018-09-06T17:33:50.363Z,21.93
2018-09-06T17:36:19.452Z,21.84
2018-09-06T17:38:48.465Z,21.92
2018-09-06T17:41:17.758Z,21.99
2018-09-06T17:43:47.292Z,21.94
2018-09-06T17:46:16.175Z,21.82
2018-09-06T17:48:45.458Z,21.85
2018-09-06T17:51:14.423Z,21.68
2018-09-06T17:53:43.211Z,21.61
2018-09-06T17:56:12.659Z,21.64
2018-09-06T17:58:41.861Z,21.65
2018-09-06T18:01:19.996Z,21.61
2018-09-06T18:03:49.456Z,21.49
2018-09-06T18:06:19.598Z,21.46
2018-09-06T18:08:49.305Z,21.37
2018-09-06T18:11:18.763Z,21.40
2018-09-06T18:13:47.996Z,21.40
2018-09-06T18:16:17.205Z,21.38
2018-09-06T18:18:46.049Z,21.33
2018-09-06T18:21:15.569Z,21.24
2018-09-06T18:23:44.512Z,21.31
2018-09-06T18:26:13.726Z,21.24
2018-09-06T18:28:42.876Z,21.14
2018-09-06T18:31:11.979Z,21.00
2018-09-06T18:33:42.199Z,21.01
2018-09-06T18:36:11.196Z,20.95
2018-09-06T18:38:40.662Z,21.02
2018-09-06T18:41:10.207Z,20.94
2018-09-06T18:43:39.084Z,20.91
2018-09-06T18:46:08.602Z,20.95
2018-09-06T18:48:37.487Z,20.83
2018-09-06T18:51:06.432Z,20.76
2018-09-06T18:53:35.479Z,20.67
2018-09-06T18:56:05.922Z,20.62
2018-09-06T18:58:35.161Z,20.67
2018-09-06T19:01:04.673Z,20.64
2018-09-06T19:03:33.487Z,20.47
2018-09-06T19:06:02.392Z,20.49
2018-09-06T19:08:33.278Z,20.50
2018-09-06T19:11:02.267Z,20.50
2018-09-06T19:13:31.317Z,20.44
2018-09-06T19:16:07.050Z,20.42
2018-09-06T19:18:37.289Z,20.44
2018-09-06T19:22:05.362Z,20.32
2018-09-06T19:24:34.643Z,19.95
2018-09-06T19:27:03.971Z,20.33
2018-09-06T19:29:34.280Z,20.25
2018-09-06T19:32:03.415Z,20.21
2018-09-06T19:34:32.481Z,20.18
2018-09-06T19:43:49.745Z,19.91
2018-09-06T19:46:18.836Z,19.88
2018-09-06T19:48:47.949Z,19.86
2018-09-06T19:51:17.751Z,19.84
2018-09-06T19:53:47.140Z,19.81
2018-09-06T19:56:16.656Z,19.82
2018-09-06T19:58:47.702Z,19.78
2018-09-06T20:01:22.086Z,19.78
2018-09-06T20:03:51.589Z,19.68
2018-09-06T20:06:20.288Z,19.67
2018-09-06T20:08:49.496Z,19.65
2018-09-06T20:11:18.603Z,19.66
2018-09-06T20:13:48.521Z,19.63
2018-09-06T20:16:17.789Z,19.57
2018-09-06T20:18:47.028Z,19.49
2018-09-06T20:21:16.209Z,19.46
2018-09-06T20:23:45.460Z,19.37
2018-09-06T20:26:15.232Z,19.34
2018-09-06T20:28:44.523Z,19.31
2018-09-06T20:31:13.682Z,19.31
2018-09-06T20:33:42.879Z,19.27
2018-09-06T20:36:12.144Z,19.26
2018-09-06T20:38:41.743Z,19.24
2018-09-06T20:41:11.028Z,19.09
2018-09-06T20:43:40.389Z,19.15
2018-09-06T20:46:09.179Z,19.13
2018-09-06T20:48:38.312Z,19.17
2018-09-06T20:51:07.406Z,19.09
2018-09-06T20:53:36.297Z,19.01
2018-09-06T20:56:05.640Z,18.89
2018-09-06T20:58:34.888Z,18.82
2018-09-06T21:01:04.177Z,18.92
2018-09-06T21:03:33.667Z,18.78
2018-09-06T21:08:38.798Z,18.91
2018-09-06T21:11:07.639Z,18.86
2018-09-06T21:13:36.432Z,18.94
2018-09-06T21:16:05.487Z,18.93
2018-09-06T21:18:34.913Z,18.86
2018-09-06T21:21:03.708Z,19.00
2018-09-06T21:23:32.851Z,18.98
2018-09-06T21:26:01.997Z,19.02
2018-09-06T21:28:30.973Z,19.03
2018-09-06T21:30:59.860Z,18.93
2018-09-06T21:33:29.188Z,18.81
2018-09-06T21:35:58.455Z,18.93
2018-09-06T21:38:27.387Z,18.93
2018-09-06T21:40:56.309Z,18.93
2018-09-06T21:43:26.304Z,18.93
2018-09-06T21:45:55.494Z,18.92
2018-09-06T21:48:24.360Z,18.92
2018-09-06T21:50:53.710Z,18.86
2018-09-06T21:53:22.780Z,18.85
2018-09-06T21:55:51.980Z,18.83
2018-09-06T21:58:21.085Z,18.85
2018-09-06T22:00:50.141Z,18.85
2018-09-06T22:03:24.383Z,18.81
2018-09-06T22:05:53.647Z,18.73
2018-09-06T22:08:24.213Z,18.76
2018-09-06T22:10:53.305Z,18.72
2018-09-06T22:13:22.194Z,18.72
2018-09-06T22:15:51.500Z,18.60
2018-09-06T22:18:21.956Z,18.64
2018-09-06T22:20:51.118Z,18.59
2018-09-06T22:23:20.226Z,18.62
2018-09-06T22:25:49.305Z,18.57
2018-09-06T22:28:18.391Z,18.51
2018-09-06T22:30:47.245Z,18.44
2018-09-06T22:33:16.088Z,18.46
2018-09-06T22:35:45.194Z,18.44
2018-09-06T22:38:14.168Z,18.40
2018-09-06T22:40:43.038Z,18.39
2018-09-06T22:43:11.898Z,18.34
2018-09-06T22:45:40.880Z,18.30
2018-09-06T22:48:09.741Z,18.28
2018-09-06T22:50:38.835Z,18.35
2018-09-06T22:53:07.782Z,18.33
2018-09-06T22:55:36.781Z,18.31
2018-09-06T22:58:05.713Z,18.37
2018-09-06T23:00:34.816Z,18.37
2018-09-06T23:03:08.756Z,18.33
2018-09-06T23:05:37.692Z,18.25
2018-09-06T23:08:06.473Z,18.18
2018-09-06T23:10:35.302Z,18.20
2018-09-06T23:13:04.067Z,18.19
2018-09-06T23:15:33.029Z,18.20
2018-09-06T23:18:01.808Z,18.05
2018-09-06T23:20:30.712Z,18.07
2018-09-06T23:22:59.656Z,18.08
2018-09-06T23:25:28.956Z,18.06
2018-09-06T23:27:58.032Z,17.95
2018-09-06T23:30:27.129Z,17.89
2018-09-06T23:32:56.639Z,17.98
2018-09-06T23:35:25.729Z,17.93
2018-09-06T23:37:54.586Z,17.83
2018-09-06T23:40:23.710Z,17.74
2018-09-06T23:42:52.793Z,17.79
2018-09-06T23:45:22.113Z,17.74
2018-09-06T23:47:50.953Z,17.75
2018-09-06T23:50:20.097Z,17.75
2018-09-06T23:52:49.001Z,17.77
2018-09-06T23:55:17.913Z,17.63
2018-09-06T23:57:46.972Z,17.67
